createdAt,value
2018-05-01T00:00:02.130Z,12.2222222222
2018-05-01T00:00:14.563Z,12.1666666667
2018-05-01T00:00:26.978Z,12.1666666667
2018-05-01T00:00:39.428Z,12.1666666667
2018-05-01T00:00:51.861Z,12.1666666667
2018-05-01T00:01:04.290Z,12.1666666667
2018-05-01T00:01:16.729Z,12.1666666667
2018-05-01T00:01:29.175Z,12.1666666667
2018-05-01T00:01:41.685Z,12.1666666667
2018-05-01T00:01:54.124Z,12.1666666667
2018-05-01T00:02:06.550Z,12.1666666667
2018-05-01T00:02:19.027Z,12.1666666667
2018-05-01T00:02:31.447Z,12.1666666667
2018-05-01T00:02:44.028Z,12.1666666667
2018-05-01T00:02:56.449Z,12.1666666667
2018-05-01T00:03:08.893Z,12.1666666667
2018-05-01T00:03:21.314Z,12.1666666667
2018-05-01T00:03:33.736Z,12.1666666667
2018-05-01T00:03:46.142Z,12.1666666667
2018-05-01T00:03:58.561Z,12.1666666667
2018-05-01T00:04:10.983Z,12.1666666667
2018-05-01T00:04:23.430Z,12.1666666667
2018-05-01T00:04:35.992Z,12.2222222222
2018-05-01T00:04:48.413Z,12.1666666667
2018-05-01T00:05:00.831Z,12.1666666667
2018-05-01T00:05:13.253Z,12.2222222222
2018-05-01T00:05:25.660Z,12.1666666667
2018-05-01T00:05:38.081Z,12.1666666667
2018-05-01T00:05:50.512Z,12.2222222222
2018-05-01T00:06:02.939Z,12.2222222222
2018-05-01T00:06:15.394Z,12.2222222222
2018-05-01T00:06:27.806Z,12.2222222222
2018-05-01T00:06:40.212Z,12.2222222222
2018-05-01T00:06:52.645Z,12.2222222222
2018-05-01T00:07:05.121Z,12.2222222222
2018-05-01T00:07:17.568Z,12.2222222222
2018-05-01T00:07:30.003Z,12.2222222222
2018-05-01T00:07:42.440Z,12.2222222222
2018-05-01T00:07:54.872Z,12.2222222222
2018-05-01T00:08:07.290Z,12.2222222222
2018-05-01T00:08:19.711Z,12.2222222222
2018-05-01T00:08:32.155Z,12.2222222222
2018-05-01T00:08:44.559Z,12.2222222222
2018-05-01T00:08:56.957Z,12.2222222222
2018-05-01T00:09:09.354Z,12.2222222222
2018-05-01T00:09:21.758Z,12.2222222222
2018-05-01T00:09:34.239Z,12.2222222222
2018-05-01T00:09:46.644Z,12.2777777778
2018-05-01T00:09:59.124Z,12.2222222222
2018-05-01T00:10:11.542Z,12.2222222222
2018-05-01T00:10:23.940Z,12.2222222222
2018-05-01T00:10:36.352Z,12.2222222222
2018-05-01T00:10:48.751Z,12.2222222222
2018-05-01T00:11:01.152Z,12.2222222222
2018-05-01T00:11:13.561Z,12.2777777778
2018-05-01T00:11:25.982Z,12.2777777778
2018-05-01T00:11:38.421Z,12.2777777778
2018-05-01T00:11:50.837Z,12.2222222222
2018-05-01T00:12:03.341Z,12.2777777778
2018-05-01T00:12:15.760Z,12.2777777778
2018-05-01T00:12:28.190Z,12.2777777778
2018-05-01T00:12:40.607Z,12.2777777778
2018-05-01T00:12:53.015Z,12.2777777778
2018-05-01T00:13:05.444Z,12.2777777778
2018-05-01T00:13:17.850Z,12.2777777778
2018-05-01T00:13:30.269Z,12.2777777778
2018-05-01T00:13:42.669Z,12.2777777778
2018-05-01T00:13:55.083Z,12.3333333333
2018-05-01T00:14:07.478Z,12.2777777778
2018-05-01T00:14:19.899Z,12.2777777778
2018-05-01T00:14:32.340Z,12.3333333333
2018-05-01T00:14:44.749Z,12.2777777778
2018-05-01T00:14:57.150Z,12.2777777778
2018-05-01T00:15:09.587Z,12.2777777778
2018-05-01T00:15:21.990Z,12.2777777778
2018-05-01T00:15:34.393Z,12.3333333333
2018-05-01T00:15:46.794Z,12.3333333333
2018-05-01T00:15:59.218Z,12.2777777778
2018-05-01T00:16:11.621Z,12.2777777778
2018-05-01T00:16:24.042Z,12.3333333333
2018-05-01T00:16:36.465Z,12.3333333333
2018-05-01T00:16:48.884Z,12.3333333333
2018-05-01T00:17:01.291Z,12.3333333333
2018-05-01T00:17:13.706Z,12.3333333333
2018-05-01T00:17:26.116Z,12.3333333333
2018-05-01T00:17:38.684Z,12.3333333333
2018-05-01T00:17:51.091Z,12.3333333333
2018-05-01T00:18:03.500Z,12.3333333333
2018-05-01T00:18:15.895Z,12.2777777778
2018-05-01T00:18:28.529Z,12.3333333333
2018-05-01T00:18:41.087Z,12.3333333333
2018-05-01T00:18:53.514Z,12.3333333333
2018-05-01T00:19:05.938Z,12.2777777778
2018-05-01T00:19:18.352Z,12.2777777778
2018-05-01T00:19:30.758Z,12.2777777778
2018-05-01T00:19:43.176Z,12.2777777778
2018-05-01T00:19:55.592Z,12.2777777778
2018-05-01T00:20:08.000Z,12.2777777778
2018-05-01T00:20:20.423Z,12.2777777778
2018-05-01T00:20:32.851Z,12.2777777778
2018-05-01T00:20:45.266Z,12.2777777778
2018-05-01T00:20:57.695Z,12.2222222222
2018-05-01T00:21:10.111Z,12.2222222222
2018-05-01T00:21:22.520Z,12.2222222222
2018-05-01T00:21:34.932Z,12.2222222222
2018-05-01T00:21:47.342Z,12.2222222222
2018-05-01T00:21:59.750Z,12.1666666667
2018-05-01T00:22:12.170Z,12.2222222222
2018-05-01T00:22:24.574Z,12.2222222222
2018-05-01T00:22:36.981Z,12.1666666667
2018-05-01T00:22:49.394Z,12.1666666667
2018-05-01T00:23:01.810Z,12.1666666667
2018-05-01T00:23:14.217Z,12.1666666667
2018-05-01T00:23:26.647Z,12.1666666667
2018-05-01T00:23:39.195Z,12.1666666667
2018-05-01T00:23:51.590Z,12.1666666667
2018-05-01T00:24:03.991Z,12.1666666667
2018-05-01T00:24:16.401Z,12.1666666667
2018-05-01T00:24:28.816Z,12.1666666667
2018-05-01T00:24:41.233Z,12.1666666667
2018-05-01T00:24:53.636Z,12.1666666667
2018-05-01T00:25:06.071Z,12.1666666667
2018-05-01T00:25:18.476Z,12.1666666667
2018-05-01T00:25:30.878Z,12.1666666667
2018-05-01T00:25:43.292Z,12.1666666667
2018-05-01T00:25:55.695Z,12.1666666667
2018-05-01T00:26:08.190Z,12.1666666667
2018-05-01T00:26:20.604Z,12.1666666667
2018-05-01T00:26:33.003Z,12.2222222222
2018-05-01T00:26:45.407Z,12.2222222222
2018-05-01T00:26:57.837Z,12.2222222222
2018-05-01T00:27:10.261Z,12.1666666667
2018-05-01T00:27:22.678Z,12.2222222222
2018-05-01T00:27:35.085Z,12.2222222222
2018-05-01T00:27:47.483Z,12.2222222222
2018-05-01T00:27:59.976Z,12.2222222222
2018-05-01T00:28:12.389Z,12.2222222222
2018-05-01T00:28:24.787Z,12.2222222222
2018-05-01T00:28:37.272Z,12.2222222222
2018-05-01T00:28:49.697Z,12.2777777778
2018-05-01T00:29:02.284Z,12.2777777778
2018-05-01T00:29:14.688Z,12.2777777778
2018-05-01T00:29:27.110Z,12.2777777778
2018-05-01T00:29:39.596Z,12.2777777778
2018-05-01T00:29:52.013Z,12.2777777778
2018-05-01T00:30:04.439Z,12.3333333333
2018-05-01T00:30:16.828Z,12.2777777778
2018-05-01T00:30:29.236Z,12.3333333333
2018-05-01T00:30:41.644Z,12.3333333333
2018-05-01T00:30:54.050Z,12.3333333333
2018-05-01T00:31:06.455Z,12.3333333333
2018-05-01T00:31:18.951Z,12.3333333333
2018-05-01T00:31:31.364Z,12.3333333333
2018-05-01T00:31:43.764Z,12.3333333333
2018-05-01T00:31:56.248Z,12.3888888889
2018-05-01T00:32:08.662Z,12.3888888889
2018-05-01T00:32:21.077Z,12.3888888889
2018-05-01T00:32:33.487Z,12.3888888889
2018-05-01T00:32:45.895Z,12.3888888889
2018-05-01T00:32:58.307Z,12.3888888889
2018-05-01T00:33:10.709Z,12.4444444444
2018-05-01T00:33:23.254Z,12.4444444444
2018-05-01T00:33:35.657Z,12.4444444444
2018-05-01T00:33:48.091Z,12.4444444444
2018-05-01T00:34:00.495Z,12.4444444444
2018-05-01T00:34:12.897Z,12.4444444444
2018-05-01T00:34:25.406Z,12.4444444444
2018-05-01T00:34:37.830Z,12.5
2018-05-01T00:34:50.251Z,12.4444444444
2018-05-01T00:35:02.661Z,12.4444444444
2018-05-01T00:35:15.068Z,12.5
2018-05-01T00:35:27.581Z,12.5
2018-05-01T00:35:39.980Z,12.5
2018-05-01T00:35:52.389Z,12.5
2018-05-01T00:36:04.820Z,12.5
2018-05-01T00:36:17.225Z,12.5555555556
2018-05-01T00:36:29.633Z,12.5555555556
2018-05-01T00:36:42.048Z,12.5555555556
2018-05-01T00:36:54.476Z,12.5555555556
2018-05-01T00:37:06.879Z,12.5555555556
2018-05-01T00:37:19.305Z,12.5555555556
2018-05-01T00:37:31.719Z,12.5555555556
2018-05-01T00:37:44.150Z,12.5555555556
2018-05-01T00:37:56.893Z,12.5555555556
2018-05-01T00:38:09.297Z,12.5555555556
2018-05-01T00:38:21.776Z,12.5555555556
2018-05-01T00:38:34.174Z,12.5555555556
2018-05-01T00:38:46.595Z,12.5555555556
2018-05-01T00:38:59.014Z,12.5555555556
2018-05-01T00:39:11.428Z,12.5555555556
2018-05-01T00:39:23.836Z,12.6111111111
2018-05-01T00:39:36.311Z,12.6111111111
2018-05-01T00:39:48.717Z,12.5555555556
2018-05-01T00:40:01.123Z,12.5555555556
2018-05-01T00:40:13.521Z,12.6111111111
2018-05-01T00:40:25.932Z,12.6111111111
2018-05-01T00:40:38.325Z,12.6111111111
2018-05-01T00:40:50.746Z,12.6111111111
2018-05-01T00:41:03.167Z,12.6111111111
2018-05-01T00:41:15.589Z,12.6111111111
2018-05-01T00:41:27.991Z,12.6111111111
2018-05-01T00:41:40.388Z,12.6111111111
2018-05-01T00:41:52.802Z,12.6111111111
2018-05-01T00:42:05.206Z,12.6111111111
2018-05-01T00:42:17.623Z,12.6666666667
2018-05-01T00:42:30.045Z,12.6666666667
2018-05-01T00:42:42.469Z,12.6111111111
2018-05-01T00:42:54.902Z,12.6666666667
2018-05-01T00:43:07.324Z,12.6666666667
2018-05-01T00:43:19.767Z,12.6666666667
2018-05-01T00:43:32.208Z,12.6666666667
2018-05-01T00:43:44.607Z,12.6666666667
2018-05-01T00:43:56.999Z,12.6666666667
2018-05-01T00:44:09.402Z,12.6666666667
2018-05-01T00:44:21.810Z,12.7222222222
2018-05-01T00:44:34.222Z,12.6666666667
2018-05-01T00:44:46.625Z,12.7222222222
2018-05-01T00:44:59.035Z,12.6666666667
2018-05-01T00:45:11.460Z,12.6666666667
2018-05-01T00:45:23.924Z,12.7222222222
2018-05-01T00:45:36.347Z,12.7222222222
2018-05-01T00:45:48.837Z,12.7222222222
2018-05-01T00:46:01.351Z,12.7222222222
2018-05-01T00:46:13.758Z,12.7222222222
2018-05-01T00:46:26.166Z,12.7777777778
2018-05-01T00:46:38.579Z,12.7777777778
2018-05-01T00:46:51.016Z,12.7777777778
2018-05-01T00:47:03.432Z,12.7777777778
2018-05-01T00:47:15.845Z,12.8333333333
2018-05-01T00:47:28.252Z,12.8333333333
2018-05-01T00:47:40.675Z,12.8333333333
2018-05-01T00:47:53.086Z,12.8333333333
2018-05-01T00:48:05.503Z,12.8333333333
2018-05-01T00:48:18.078Z,12.8888888889
2018-05-01T00:48:30.489Z,12.8888888889
2018-05-01T00:48:42.892Z,12.8888888889
2018-05-01T00:48:55.313Z,12.8888888889
2018-05-01T00:49:07.739Z,12.8888888889
2018-05-01T00:49:20.157Z,12.9444444444
2018-05-01T00:49:32.648Z,12.9444444444
2018-05-01T00:49:45.059Z,12.9444444444
2018-05-01T00:49:57.461Z,12.9444444444
2018-05-01T00:50:09.884Z,12.9444444444
2018-05-01T00:50:22.290Z,13
2018-05-01T00:50:34.706Z,13
2018-05-01T00:50:47.125Z,12.9444444444
2018-05-01T00:50:59.604Z,13
2018-05-01T00:51:12.002Z,13
2018-05-01T00:51:24.607Z,13
2018-05-01T00:51:37.771Z,13
2018-05-01T00:51:51.303Z,13.0555555556
2018-05-01T00:52:03.828Z,13.0555555556
2018-05-01T00:52:16.223Z,13.0555555556
2018-05-01T00:52:28.694Z,13.0555555556
2018-05-01T00:52:41.115Z,13.0555555556
2018-05-01T00:52:53.529Z,13.0555555556
2018-05-01T00:53:05.952Z,13.1111111111
2018-05-01T00:53:18.416Z,13.1111111111
2018-05-01T00:53:30.825Z,13.1111111111
2018-05-01T00:53:43.313Z,13.1111111111
2018-05-01T00:53:55.709Z,13.1111111111
2018-05-01T00:54:08.195Z,13.1111111111
2018-05-01T00:54:20.588Z,13.1111111111
2018-05-01T00:54:32.986Z,13.1666666667
2018-05-01T00:54:45.401Z,13.1666666667
2018-05-01T00:54:57.811Z,13.1111111111
2018-05-01T00:55:10.230Z,13.1666666667
2018-05-01T00:55:22.717Z,13.1666666667
2018-05-01T00:55:35.121Z,13.1666666667
2018-05-01T00:55:47.536Z,13.1666666667
2018-05-01T00:56:00.033Z,13.1666666667
2018-05-01T00:56:12.462Z,13.2222222222
2018-05-01T00:56:24.873Z,13.2222222222
2018-05-01T00:56:37.269Z,13.2222222222
2018-05-01T00:56:49.753Z,13.2222222222
2018-05-01T00:57:02.184Z,13.2777777778
2018-05-01T00:57:14.597Z,13.2222222222
2018-05-01T00:57:27.000Z,13.2777777778
2018-05-01T00:57:39.420Z,13.2777777778
2018-05-01T00:57:51.827Z,13.2777777778
2018-05-01T00:58:04.324Z,13.2777777778
2018-05-01T00:58:16.837Z,13.2777777778
2018-05-01T00:58:29.257Z,13.2777777778
2018-05-01T00:58:41.751Z,13.3333333333
2018-05-01T00:58:54.178Z,13.2777777778
2018-05-01T00:59:06.593Z,13.2777777778
2018-05-01T00:59:19.005Z,13.3333333333
2018-05-01T00:59:31.433Z,13.3333333333
2018-05-01T00:59:44.036Z,13.3333333333
2018-05-01T00:59:56.455Z,13.3333333333
2018-05-01T01:00:08.891Z,13.3333333333
2018-05-01T01:00:21.485Z,13.3333333333
2018-05-01T01:00:33.938Z,13.3333333333
2018-05-01T01:00:46.390Z,13.3333333333
2018-05-01T01:00:58.827Z,13.3333333333
2018-05-01T01:01:11.265Z,13.3333333333
2018-05-01T01:01:23.703Z,13.3333333333
2018-05-01T01:01:36.216Z,13.3333333333
2018-05-01T01:01:48.729Z,13.3333333333
2018-05-01T01:02:01.151Z,13.3333333333
2018-05-01T01:02:13.561Z,13.3333333333
2018-05-01T01:02:25.978Z,13.3333333333
2018-05-01T01:02:38.416Z,13.3333333333
2018-05-01T01:02:50.829Z,13.3333333333
2018-05-01T01:03:03.244Z,13.3333333333
2018-05-01T01:03:15.691Z,13.3333333333
2018-05-01T01:03:28.107Z,13.3333333333
2018-05-01T01:03:40.889Z,13.3333333333
2018-05-01T01:03:53.621Z,13.3333333333
2018-05-01T01:04:06.059Z,13.3333333333
2018-05-01T01:04:18.473Z,13.3333333333
2018-05-01T01:04:30.875Z,13.3333333333
2018-05-01T01:04:43.283Z,13.3333333333
2018-05-01T01:04:55.715Z,13.3333333333
2018-05-01T01:05:08.144Z,13.3333333333
2018-05-01T01:05:20.685Z,13.3333333333
2018-05-01T01:05:33.098Z,13.3333333333
2018-05-01T01:05:45.658Z,13.3333333333
2018-05-01T01:05:58.077Z,13.3333333333
2018-05-01T01:06:10.485Z,13.3333333333
2018-05-01T01:06:22.890Z,13.3333333333
2018-05-01T01:06:35.290Z,13.3333333333
2018-05-01T01:06:47.700Z,13.3333333333
2018-05-01T01:07:00.109Z,13.3333333333
2018-05-01T01:07:12.514Z,13.3333333333
2018-05-01T01:07:24.924Z,13.3333333333
2018-05-01T01:07:37.339Z,13.3333333333
2018-05-01T01:07:49.749Z,13.3333333333
2018-05-01T01:08:02.185Z,13.3333333333
2018-05-01T01:08:14.597Z,13.3333333333
2018-05-01T01:08:27.008Z,13.3333333333
2018-05-01T01:08:39.414Z,13.3333333333
2018-05-01T01:08:51.868Z,13.3333333333
2018-05-01T01:09:04.283Z,13.3333333333
2018-05-01T01:09:16.707Z,13.3333333333
2018-05-01T01:09:29.120Z,13.3333333333
2018-05-01T01:09:41.523Z,13.3333333333
2018-05-01T01:09:53.939Z,13.3333333333
2018-05-01T01:10:06.350Z,13.3333333333
2018-05-01T01:10:18.826Z,13.3333333333
2018-05-01T01:10:31.240Z,13.3333333333
2018-05-01T01:10:43.678Z,13.3333333333
2018-05-01T01:10:56.087Z,13.3333333333
2018-05-01T01:11:08.515Z,13.3333333333
2018-05-01T01:11:20.913Z,13.3888888889
2018-05-01T01:11:33.318Z,13.3333333333
2018-05-01T01:11:45.718Z,13.3333333333
2018-05-01T01:11:58.115Z,13.3333333333
2018-05-01T01:12:10.531Z,13.3333333333
2018-05-01T01:12:22.929Z,13.3333333333
2018-05-01T01:12:35.329Z,13.3333333333
2018-05-01T01:12:47.730Z,13.3333333333
2018-05-01T01:13:00.140Z,13.3333333333
2018-05-01T01:13:12.567Z,13.3333333333
2018-05-01T01:13:24.986Z,13.3333333333
2018-05-01T01:13:37.395Z,13.3333333333
2018-05-01T01:13:49.827Z,13.3888888889
2018-05-01T01:14:02.279Z,13.3888888889
2018-05-01T01:14:14.699Z,13.3888888889
2018-05-01T01:14:27.102Z,13.3888888889
2018-05-01T01:14:39.542Z,13.3888888889
2018-05-01T01:14:51.948Z,13.3888888889
2018-05-01T01:15:04.365Z,13.3888888889
2018-05-01T01:15:16.779Z,13.4444444444
2018-05-01T01:15:29.194Z,13.4444444444
2018-05-01T01:15:41.595Z,13.3888888889
2018-05-01T01:15:54.034Z,13.4444444444
2018-05-01T01:16:06.441Z,13.4444444444
2018-05-01T01:16:18.842Z,13.4444444444
2018-05-01T01:16:31.287Z,13.4444444444
2018-05-01T01:16:43.707Z,13.4444444444
2018-05-01T01:16:56.112Z,13.4444444444
2018-05-01T01:17:08.556Z,13.4444444444
2018-05-01T01:17:20.977Z,13.5
2018-05-01T01:17:33.390Z,13.4444444444
2018-05-01T01:17:45.820Z,13.4444444444
2018-05-01T01:17:58.241Z,13.5
2018-05-01T01:18:10.671Z,13.5
2018-05-01T01:18:23.284Z,13.5
2018-05-01T01:18:35.683Z,13.5
2018-05-01T01:18:48.271Z,13.5
2018-05-01T01:19:00.698Z,13.5
2018-05-01T01:19:13.096Z,13.5
2018-05-01T01:19:25.493Z,13.5555555556
2018-05-01T01:19:37.913Z,13.5555555556
2018-05-01T01:19:50.314Z,13.5555555556
2018-05-01T01:20:02.780Z,13.5555555556
2018-05-01T01:20:15.187Z,13.5555555556
2018-05-01T01:20:27.591Z,13.6111111111
2018-05-01T01:20:40.000Z,13.6111111111
2018-05-01T01:20:52.416Z,13.6111111111
2018-05-01T01:21:04.820Z,13.6111111111
2018-05-01T01:21:17.226Z,13.6666666667
2018-05-01T01:21:29.639Z,13.6666666667
2018-05-01T01:21:42.052Z,13.6666666667
2018-05-01T01:21:54.464Z,13.6666666667
2018-05-01T01:22:06.886Z,13.7222222222
2018-05-01T01:22:19.371Z,13.7222222222
2018-05-01T01:22:31.780Z,13.7222222222
2018-05-01T01:22:44.194Z,13.7777777778
2018-05-01T01:22:56.599Z,13.7777777778
2018-05-01T01:23:09.014Z,13.7777777778
2018-05-01T01:23:21.422Z,13.8333333333
2018-05-01T01:23:33.831Z,13.8333333333
2018-05-01T01:23:46.441Z,13.8333333333
2018-05-01T01:23:58.849Z,13.8333333333
2018-05-01T01:24:11.267Z,13.8888888889
2018-05-01T01:24:23.689Z,13.8888888889
2018-05-01T01:24:36.113Z,13.8888888889
2018-05-01T01:24:48.519Z,13.8888888889
2018-05-01T01:25:00.930Z,13.9444444444
2018-05-01T01:25:13.334Z,13.9444444444
2018-05-01T01:25:25.744Z,13.9444444444
2018-05-01T01:25:38.160Z,13.9444444444
2018-05-01T01:25:50.607Z,14
2018-05-01T01:26:03.021Z,14
2018-05-01T01:26:15.433Z,14
2018-05-01T01:26:27.841Z,14
2018-05-01T01:26:40.298Z,14.0555555556
2018-05-01T01:26:52.704Z,14.0555555556
2018-05-01T01:27:05.120Z,14.0555555556
2018-05-01T01:27:17.534Z,14.0555555556
2018-05-01T01:27:29.958Z,14.0555555556
2018-05-01T01:27:42.371Z,14.0555555556
2018-05-01T01:27:54.797Z,14.0555555556
2018-05-01T01:28:07.198Z,14.0555555556
2018-05-01T01:28:19.607Z,14.1111111111
2018-05-01T01:28:32.019Z,14.1111111111
2018-05-01T01:28:44.469Z,14.1666666667
2018-05-01T01:28:56.934Z,14.1111111111
2018-05-01T01:29:09.349Z,14.1666666667
2018-05-01T01:29:21.783Z,14.1666666667
2018-05-01T01:29:34.202Z,14.1666666667
2018-05-01T01:29:46.660Z,14.1666666667
2018-05-01T01:29:59.076Z,14.2222222222
2018-05-01T01:30:11.481Z,14.2222222222
2018-05-01T01:30:23.906Z,14.1666666667
2018-05-01T01:30:36.414Z,14.1666666667
2018-05-01T01:30:48.818Z,14.2222222222
2018-05-01T01:31:01.222Z,14.2222222222
2018-05-01T01:31:13.642Z,14.2222222222
2018-05-01T01:31:26.066Z,14.2222222222
2018-05-01T01:31:38.489Z,14.2222222222
2018-05-01T01:31:50.904Z,14.2777777778
2018-05-01T01:32:03.325Z,14.2222222222
2018-05-01T01:32:15.744Z,14.2777777778
2018-05-01T01:32:28.155Z,14.2777777778
2018-05-01T01:32:40.562Z,14.2777777778
2018-05-01T01:32:52.974Z,14.2777777778
2018-05-01T01:33:05.379Z,14.2777777778
2018-05-01T01:33:17.801Z,14.2777777778
2018-05-01T01:33:30.378Z,14.2777777778
2018-05-01T01:33:42.782Z,14.2777777778
2018-05-01T01:33:55.189Z,14.2777777778
2018-05-01T01:34:07.583Z,14.2777777778
2018-05-01T01:34:19.985Z,14.2777777778
2018-05-01T01:34:32.431Z,14.3333333333
2018-05-01T01:34:44.838Z,14.2777777778
2018-05-01T01:34:57.336Z,14.2777777778
2018-05-01T01:35:09.757Z,14.3333333333
2018-05-01T01:35:22.163Z,14.3333333333
2018-05-01T01:35:34.664Z,14.3333333333
2018-05-01T01:35:47.076Z,14.3333333333
2018-05-01T01:35:59.469Z,14.3333333333
2018-05-01T01:36:11.877Z,14.3333333333
2018-05-01T01:36:24.294Z,14.3333333333
2018-05-01T01:36:36.722Z,14.3333333333
2018-05-01T01:36:49.153Z,14.3333333333
2018-05-01T01:37:01.568Z,14.3333333333
2018-05-01T01:37:13.974Z,14.3333333333
2018-05-01T01:37:26.390Z,14.3333333333
2018-05-01T01:37:38.880Z,14.2777777778
2018-05-01T01:37:51.706Z,14.2777777778
2018-05-01T01:38:04.129Z,14.2777777778
2018-05-01T01:38:16.552Z,14.2777777778
2018-05-01T01:38:28.976Z,14.2777777778
2018-05-01T01:38:41.400Z,14.2777777778
2018-05-01T01:38:53.824Z,14.2777777778
2018-05-01T01:39:06.231Z,14.2222222222
2018-05-01T01:39:18.644Z,14.2777777778
2018-05-01T01:39:31.050Z,14.2222222222
2018-05-01T01:39:43.495Z,14.2222222222
2018-05-01T01:39:55.921Z,14.2222222222
2018-05-01T01:40:08.476Z,14.1666666667
2018-05-01T01:40:20.903Z,14.1666666667
2018-05-01T01:40:33.316Z,14.1666666667
2018-05-01T01:40:45.729Z,14.1666666667
2018-05-01T01:40:58.143Z,14.1111111111
2018-05-01T01:41:10.552Z,14.1111111111
2018-05-01T01:41:22.964Z,14.1111111111
2018-05-01T01:41:35.366Z,14.1111111111
2018-05-01T01:41:47.781Z,14.0555555556
2018-05-01T01:42:00.181Z,14.0555555556
2018-05-01T01:42:12.596Z,14.0555555556
2018-05-01T01:42:25.003Z,14.0555555556
2018-05-01T01:42:37.483Z,13.9444444444
2018-05-01T01:42:49.893Z,13.9444444444
2018-05-01T01:43:02.295Z,13.9444444444
2018-05-01T01:43:14.702Z,13.9444444444
2018-05-01T01:43:27.091Z,13.9444444444
2018-05-01T01:43:39.500Z,13.8888888889
2018-05-01T01:43:51.898Z,13.8333333333
2018-05-01T01:44:04.315Z,13.8333333333
2018-05-01T01:44:16.718Z,13.8333333333
2018-05-01T01:44:29.151Z,13.8333333333
2018-05-01T01:44:41.551Z,13.7777777778
2018-05-01T01:44:53.957Z,13.7777777778
2018-05-01T01:45:06.364Z,13.7777777778
2018-05-01T01:45:18.774Z,13.7777777778
2018-05-01T01:45:31.169Z,13.7222222222
2018-05-01T01:45:43.575Z,13.7222222222
2018-05-01T01:45:56.112Z,13.7222222222
2018-05-01T01:46:08.525Z,13.6666666667
2018-05-01T01:46:20.947Z,13.6666666667
2018-05-01T01:46:33.353Z,13.6111111111
2018-05-01T01:46:45.757Z,13.6111111111
2018-05-01T01:46:58.175Z,13.6111111111
2018-05-01T01:47:10.604Z,13.6111111111
2018-05-01T01:47:23.032Z,13.6111111111
2018-05-01T01:47:35.433Z,13.6111111111
2018-05-01T01:47:47.841Z,13.5555555556
2018-05-01T01:48:00.318Z,13.5555555556
2018-05-01T01:48:12.854Z,13.5555555556
2018-05-01T01:48:25.261Z,13.5555555556
2018-05-01T01:48:37.660Z,13.5
2018-05-01T01:48:50.076Z,13.5
2018-05-01T01:49:02.481Z,13.5
2018-05-01T01:49:14.936Z,13.5
2018-05-01T01:49:27.355Z,13.5
2018-05-01T01:49:39.755Z,13.4444444444
2018-05-01T01:49:52.163Z,13.4444444444
2018-05-01T01:50:04.580Z,13.4444444444
2018-05-01T01:50:16.980Z,13.4444444444
2018-05-01T01:50:29.377Z,13.4444444444
2018-05-01T01:50:41.774Z,13.4444444444
2018-05-01T01:50:54.269Z,13.4444444444
2018-05-01T01:51:06.675Z,13.4444444444
2018-05-01T01:51:19.082Z,13.4444444444
2018-05-01T01:51:31.498Z,13.3888888889
2018-05-01T01:51:43.904Z,13.3888888889
2018-05-01T01:51:56.320Z,13.4444444444
2018-05-01T01:52:08.766Z,13.3888888889
2018-05-01T01:52:21.183Z,13.3888888889
2018-05-01T01:52:33.593Z,13.3888888889
2018-05-01T01:52:46.023Z,13.3888888889
2018-05-01T01:52:58.439Z,13.3333333333
2018-05-01T01:53:10.887Z,13.3333333333
2018-05-01T01:53:23.304Z,13.3333333333
2018-05-01T01:53:35.778Z,13.3333333333
2018-05-01T01:53:48.179Z,13.3333333333
2018-05-01T01:54:00.595Z,13.3333333333
2018-05-01T01:54:12.995Z,13.3333333333
2018-05-01T01:54:25.430Z,13.3333333333
2018-05-01T01:54:37.843Z,13.3333333333
2018-05-01T01:54:50.254Z,13.3333333333
2018-05-01T01:55:02.662Z,13.3333333333
2018-05-01T01:55:15.068Z,13.2777777778
2018-05-01T01:55:27.467Z,13.3333333333
2018-05-01T01:55:39.864Z,13.3333333333
2018-05-01T01:55:52.275Z,13.3333333333
2018-05-01T01:56:04.698Z,13.3333333333
2018-05-01T01:56:17.183Z,13.2777777778
2018-05-01T01:56:29.611Z,13.2777777778
2018-05-01T01:56:42.031Z,13.3333333333
2018-05-01T01:56:54.454Z,13.2777777778
2018-05-01T01:57:07.011Z,13.2777777778
2018-05-01T01:57:19.431Z,13.2777777778
2018-05-01T01:57:31.935Z,13.2777777778
2018-05-01T01:57:44.358Z,13.2777777778
2018-05-01T01:57:56.851Z,13.2777777778
2018-05-01T01:58:09.263Z,13.2777777778
2018-05-01T01:58:21.667Z,13.2777777778
2018-05-01T01:58:34.151Z,13.2777777778
2018-05-01T01:58:46.557Z,13.2777777778
2018-05-01T01:58:58.960Z,13.2777777778
2018-05-01T01:59:11.364Z,13.2777777778
2018-05-01T01:59:23.768Z,13.2777777778
2018-05-01T01:59:36.204Z,13.2777777778
2018-05-01T01:59:48.620Z,13.2777777778
2018-05-01T02:00:01.029Z,13.2777777778
2018-05-01T02:00:13.481Z,13.2777777778
2018-05-01T02:00:25.911Z,13.2777777778
2018-05-01T02:00:38.368Z,13.2777777778
2018-05-01T02:00:50.824Z,13.2777777778
2018-05-01T02:01:03.248Z,13.2777777778
2018-05-01T02:01:15.686Z,13.2777777778
2018-05-01T02:01:28.119Z,13.2777777778
2018-05-01T02:01:40.543Z,13.3333333333
2018-05-01T02:01:52.977Z,13.2777777778
2018-05-01T02:02:05.388Z,13.3333333333
2018-05-01T02:02:17.807Z,13.2777777778
2018-05-01T02:02:30.225Z,13.2777777778
2018-05-01T02:02:42.666Z,13.2777777778
2018-05-01T02:02:55.122Z,13.3333333333
2018-05-01T02:03:07.538Z,13.3333333333
2018-05-01T02:03:19.955Z,13.3333333333
2018-05-01T02:03:32.359Z,13.2777777778
2018-05-01T02:03:44.781Z,13.3333333333
2018-05-01T02:03:57.277Z,13.2777777778
2018-05-01T02:04:09.705Z,13.3333333333
2018-05-01T02:04:22.112Z,13.2777777778
2018-05-01T02:04:34.532Z,13.3333333333
2018-05-01T02:04:47.060Z,13.3333333333
2018-05-01T02:04:59.481Z,13.3333333333
2018-05-01T02:05:11.909Z,13.3333333333
2018-05-01T02:05:24.360Z,13.3333333333
2018-05-01T02:05:36.768Z,13.3333333333
2018-05-01T02:05:49.210Z,13.3333333333
2018-05-01T02:06:01.627Z,13.3333333333
2018-05-01T02:06:14.033Z,13.3333333333
2018-05-01T02:06:26.445Z,13.3333333333
2018-05-01T02:06:38.865Z,13.3333333333
2018-05-01T02:06:51.277Z,13.3333333333
2018-05-01T02:07:03.687Z,13.3333333333
2018-05-01T02:07:16.109Z,13.3333333333
2018-05-01T02:07:28.531Z,13.3333333333
2018-05-01T02:07:40.961Z,13.3333333333
2018-05-01T02:07:53.410Z,13.3333333333
2018-05-01T02:08:05.883Z,13.3333333333
2018-05-01T02:08:18.287Z,13.3333333333
2018-05-01T02:08:30.693Z,13.3333333333
2018-05-01T02:08:43.112Z,13.3333333333